createdAt,value
2019-05-01T00:00:12.282Z,1010.6
2019-05-01T00:01:24.412Z,1010.7
2019-05-01T00:02:36.621Z,1010.6
2019-05-01T00:03:48.751Z,1010.7
2019-05-01T00:05:00.992Z,1010.7
2019-05-01T00:06:13.250Z,1010.7
2019-05-01T00:07:25.351Z,1010.6
2019-05-01T00:08:37.639Z,1010.7
2019-05-01T00:11:02.084Z,1010.8
2019-05-01T00:13:26.402Z,1010.7
2019-05-01T00:15:50.730Z,1010.7
2019-05-01T00:17:02.974Z,1010.7
2019-05-01T00:18:15.176Z,1010.7
2019-05-01T00:19:27.294Z,1010.7
2019-05-01T00:20:39.551Z,1010.7
2019-05-01T00:23:08.877Z,1010.7
2019-05-01T00:24:16.157Z,1010.7
2019-05-01T00:25:28.297Z,1010.7
2019-05-01T00:26:40.483Z,1010.7
2019-05-01T00:27:52.771Z,1010.6
2019-05-01T00:29:04.868Z,1010.6
2019-05-01T00:30:17.265Z,1010.6
2019-05-01T00:31:29.268Z,1010.7
2019-05-01T00:32:41.471Z,1010.6
2019-05-01T00:36:18.208Z,1010.6
2019-05-01T00:37:30.345Z,1010.6
2019-05-01T00:38:42.472Z,1010.5
2019-05-01T00:39:54.700Z,1010.5
2019-05-01T00:41:06.834Z,1010.5
2019-05-01T00:42:19.010Z,1010.5
2019-05-01T00:43:34.158Z,1010.6
2019-05-01T00:44:43.395Z,1010.6
2019-05-01T00:47:07.871Z,1010.6
2019-05-01T00:49:32.324Z,1010.5
2019-05-01T00:50:44.447Z,1010.5
2019-05-01T00:53:08.779Z,1010.4
2019-05-01T00:54:21.102Z,1010.5
2019-05-01T00:55:33.178Z,1010.5
2019-05-01T00:59:09.782Z,1010.4
2019-05-01T01:01:34.132Z,1010.4
2019-05-01T01:02:46.358Z,1010.4
2019-05-01T01:03:58.651Z,1010.4
2019-05-01T01:05:10.718Z,1010.3
2019-05-01T01:06:22.908Z,1010.4
2019-05-01T01:07:35.177Z,1010.3
2019-05-01T01:08:49.123Z,1010.3
2019-05-01T01:11:11.992Z,1010.4
2019-05-01T01:13:36.086Z,1010.4
2019-05-01T01:14:48.396Z,1010.3
2019-05-01T01:16:00.482Z,1010.3
2019-05-01T01:17:12.680Z,1010.3
2019-05-01T01:19:37.141Z,1010.3
2019-05-01T01:20:49.251Z,1010.4
2019-05-01T01:23:13.681Z,1010.4
2019-05-01T01:25:38.524Z,1010.3
2019-05-01T01:26:50.489Z,1010.2
2019-05-01T01:28:02.873Z,1010.2
2019-05-01T01:29:14.663Z,1010.2
2019-05-01T01:30:26.929Z,1010.2
2019-05-01T01:31:39.241Z,1010.2
2019-05-01T01:32:51.473Z,1010.2
2019-05-01T01:35:15.627Z,1010.2
2019-05-01T01:36:27.862Z,1010.2
2019-05-01T01:37:40.029Z,1010.2
2019-05-01T01:40:04.489Z,1010.1
2019-05-01T01:41:16.591Z,1010.2
2019-05-01T01:42:28.873Z,1010.1
2019-05-01T01:43:41.241Z,1010.2
2019-05-01T01:44:53.254Z,1010.1
2019-05-01T01:47:17.656Z,1010.1
2019-05-01T01:49:41.951Z,1010
2019-05-01T01:50:54.230Z,1010
2019-05-01T01:52:06.490Z,1010
2019-05-01T01:53:18.547Z,1010
2019-05-01T01:55:42.937Z,1010.1
2019-05-01T01:56:55.148Z,1010
2019-05-01T01:59:19.594Z,1010
2019-05-01T02:00:31.873Z,1010
2019-05-01T02:01:43.901Z,1010
2019-05-01T02:02:56.116Z,1010
2019-05-01T02:04:08.290Z,1010
2019-05-01T02:05:20.554Z,1010
2019-05-01T02:06:32.690Z,1010
2019-05-01T02:07:44.898Z,1010
2019-05-01T02:08:57.249Z,1010
2019-05-01T02:11:21.597Z,1009.9
2019-05-01T02:13:45.943Z,1009.9
2019-05-01T02:17:22.471Z,1009.8
2019-05-01T02:18:34.749Z,1009.8
2019-05-01T02:19:46.976Z,1009.8
2019-05-01T02:20:59.079Z,1009.9
2019-05-01T02:23:23.614Z,1009.9
2019-05-01T02:24:35.787Z,1009.8
2019-05-01T02:25:54.870Z,1009.9
2019-05-01T02:27:00.025Z,1009.8
2019-05-01T02:28:12.227Z,1009.8
2019-05-01T02:29:24.791Z,1009.8
2019-05-01T02:30:36.712Z,1009.8
2019-05-01T02:31:48.874Z,1009.8
2019-05-01T02:33:01.015Z,1009.8
2019-05-01T02:35:25.470Z,1009.8
2019-05-01T02:37:49.834Z,1009.8
2019-05-01T02:39:03.665Z,1009.8
2019-05-01T02:41:26.455Z,1009.7
2019-05-01T02:42:38.558Z,1009.7
2019-05-01T02:43:50.780Z,1009.7
2019-05-01T02:47:27.463Z,1009.8
2019-05-01T02:49:51.761Z,1009.8
2019-05-01T02:52:16.406Z,1009.8
2019-05-01T02:53:28.317Z,1009.8
2019-05-01T02:54:40.588Z,1009.7
2019-05-01T02:55:55.971Z,1009.8
2019-05-01T02:57:04.902Z,1009.7
2019-05-01T03:00:41.717Z,1009.8
2019-05-01T03:01:53.698Z,1009.7
2019-05-01T03:04:18.157Z,1009.7
2019-05-01T03:05:30.292Z,1009.7
2019-05-01T03:06:42.569Z,1009.7
2019-05-01T03:07:54.726Z,1009.7
2019-05-01T03:11:31.274Z,1009.8
2019-05-01T03:13:55.871Z,1009.8
2019-05-01T03:16:20.233Z,1009.8
2019-05-01T03:17:32.239Z,1009.8
2019-05-01T03:18:44.497Z,1009.8
2019-05-01T03:19:56.619Z,1009.7
2019-05-01T03:23:33.230Z,1009.6
2019-05-01T03:24:45.564Z,1009.6
2019-05-01T03:25:57.687Z,1009.7
2019-05-01T03:27:09.867Z,1009.6
2019-05-01T03:28:22.172Z,1009.7
2019-05-01T03:29:34.210Z,1009.6
2019-05-01T03:30:49.360Z,1009.7
2019-05-01T03:31:58.589Z,1009.6
2019-05-01T03:33:10.862Z,1009.6
2019-05-01T03:35:35.347Z,1009.6
2019-05-01T03:37:59.567Z,1009.7
2019-05-01T03:39:11.858Z,1009.6
2019-05-01T03:40:23.987Z,1009.6
2019-05-01T03:41:36.383Z,1009.6
2019-05-01T03:42:48.415Z,1009.6
2019-05-01T03:44:01.198Z,1009.6
2019-05-01T03:45:12.888Z,1009.6
2019-05-01T03:47:37.116Z,1009.6
2019-05-01T03:50:01.647Z,1009.6
2019-05-01T03:51:13.825Z,1009.6
2019-05-01T03:52:25.946Z,1009.6
2019-05-01T03:53:38.102Z,1009.6
2019-05-01T03:54:50.386Z,1009.5
2019-05-01T03:56:02.505Z,1009.6
2019-05-01T03:57:14.864Z,1009.6
2019-05-01T03:59:39.168Z,1009.6
2019-05-01T04:00:51.409Z,1009.6
2019-05-01T04:02:03.466Z,1009.6
2019-05-01T04:03:15.795Z,1009.6
2019-05-01T04:05:40.071Z,1009.6
2019-05-01T04:06:56.927Z,1009.6
2019-05-01T04:08:04.439Z,1009.6
2019-05-01T04:09:16.684Z,1009.6
2019-05-01T04:14:05.479Z,1009.6
2019-05-01T04:15:17.724Z,1009.6
2019-05-01T04:16:29.932Z,1009.7
2019-05-01T04:17:42.028Z,1009.6
2019-05-01T04:18:54.308Z,1009.7
2019-05-01T04:20:06.446Z,1009.6
2019-05-01T04:21:18.636Z,1009.6
2019-05-01T04:23:42.994Z,1009.7
2019-05-01T04:24:55.263Z,1009.6
2019-05-01T04:26:07.858Z,1009.6
2019-05-01T04:28:31.779Z,1009.6
2019-05-01T04:29:43.965Z,1009.6
2019-05-01T04:30:56.191Z,1009.7
2019-05-01T04:32:08.373Z,1009.7
2019-05-01T04:35:44.934Z,1009.7
2019-05-01T04:36:57.164Z,1009.6
2019-05-01T04:38:09.380Z,1009.7
2019-05-01T04:39:21.544Z,1009.7
2019-05-01T04:40:33.721Z,1009.7
2019-05-01T04:41:45.955Z,1009.7
2019-05-01T04:44:10.313Z,1009.6
2019-05-01T04:45:22.512Z,1009.7
2019-05-01T04:47:46.916Z,1009.7
2019-05-01T04:50:11.283Z,1009.7
2019-05-01T04:51:23.670Z,1009.7
2019-05-01T04:52:35.683Z,1009.8
2019-05-01T04:53:47.902Z,1009.8
2019-05-01T04:56:12.282Z,1009.8
2019-05-01T04:57:24.542Z,1009.8
2019-05-01T04:59:48.918Z,1009.8
2019-05-01T05:02:13.290Z,1009.8
2019-05-01T05:03:25.426Z,1009.7
2019-05-01T05:04:37.613Z,1009.7
2019-05-01T05:05:49.828Z,1009.7
2019-05-01T05:07:02.036Z,1009.7
2019-05-01T05:08:14.294Z,1009.7
2019-05-01T05:09:26.501Z,1009.7
2019-05-01T05:11:50.826Z,1009.7
2019-05-01T05:14:15.185Z,1009.7
2019-05-01T05:15:27.387Z,1009.7
2019-05-01T05:17:51.784Z,1009.7
2019-05-01T05:19:03.966Z,1009.7
2019-05-01T05:20:16.166Z,1009.7
2019-05-01T05:21:28.390Z,1009.7
2019-05-01T05:25:08.265Z,1009.7
2019-05-01T05:26:17.190Z,1009.7
2019-05-01T05:27:29.384Z,1009.7
2019-05-01T05:28:41.569Z,1009.7
2019-05-01T05:29:53.810Z,1009.7
2019-05-01T05:32:18.113Z,1009.7
2019-05-01T05:33:30.309Z,1009.7
2019-05-01T05:35:54.805Z,1009.7
2019-05-01T05:38:20.547Z,1009.7
2019-05-01T05:39:31.317Z,1009.7
2019-05-01T05:40:43.571Z,1009.7
2019-05-01T05:41:55.829Z,1009.7
2019-05-01T05:43:07.879Z,1009.7
2019-05-01T05:44:20.064Z,1009.8
2019-05-01T05:45:32.325Z,1009.7
2019-05-01T05:50:21.042Z,1009.8
2019-05-01T05:51:33.321Z,1009.8
2019-05-01T05:52:45.602Z,1009.8
2019-05-01T05:53:57.636Z,1009.8
2019-05-01T05:55:09.830Z,1009.8
2019-05-01T05:56:22.044Z,1009.8
2019-05-01T05:57:34.918Z,1009.8
2019-05-01T05:59:58.721Z,1009.8
2019-05-01T06:01:10.801Z,1009.8
2019-05-01T06:02:22.989Z,1009.9
2019-05-01T06:03:35.305Z,1009.8
2019-05-01T06:04:47.399Z,1009.8
2019-05-01T06:05:59.593Z,1009.8
2019-05-01T06:07:11.897Z,1009.8
2019-05-01T06:08:23.984Z,1009.8
2019-05-01T06:09:36.175Z,1009.8
2019-05-01T06:12:00.568Z,1009.8
2019-05-01T06:14:25.190Z,1009.8
2019-05-01T06:18:01.656Z,1009.8
2019-05-01T06:19:14.490Z,1009.8
2019-05-01T06:20:25.949Z,1009.7
2019-05-01T06:21:38.244Z,1009.8
2019-05-01T06:24:02.542Z,1009.7
2019-05-01T06:25:14.832Z,1009.8
2019-05-01T06:26:27.339Z,1009.8
2019-05-01T06:27:39.200Z,1009.8
2019-05-01T06:30:03.583Z,1009.8
2019-05-01T06:32:27.875Z,1009.6
2019-05-01T06:33:40.091Z,1009.8
2019-05-01T06:36:04.558Z,1009.9
2019-05-01T06:39:41.170Z,1009.8
2019-05-01T06:40:53.331Z,1009.8
2019-05-01T06:42:05.505Z,1009.8
2019-05-01T06:43:17.741Z,1009.8
2019-05-01T06:44:29.823Z,1009.8
2019-05-01T06:45:42.031Z,1009.8
2019-05-01T06:48:06.440Z,1009.8
2019-05-01T06:50:30.904Z,1009.8
2019-05-01T06:51:43.135Z,1009.8
2019-05-01T06:52:55.174Z,1009.8
2019-05-01T06:54:07.369Z,1009.8
2019-05-01T06:55:19.864Z,1009.8
2019-05-01T06:56:31.970Z,1009.8
2019-05-01T06:57:44.034Z,1009.8
2019-05-01T07:00:08.345Z,1009.7
2019-05-01T07:02:32.832Z,1009.8
2019-05-01T07:06:09.321Z,1009.9
2019-05-01T07:07:21.539Z,1009.8
2019-05-01T07:08:33.708Z,1009.8
2019-05-01T07:09:46.046Z,1009.8
2019-05-01T07:14:34.685Z,1009.8
2019-05-01T07:15:49.169Z,1009.8
2019-05-01T07:16:59.042Z,1009.9
2019-05-01T07:18:11.370Z,1009.9
2019-05-01T07:19:23.513Z,1009.9
2019-05-01T07:20:35.716Z,1009.9
2019-05-01T07:24:12.248Z,1009.8
2019-05-01T07:29:00.997Z,1009.9
2019-05-01T07:30:13.180Z,1009.9
2019-05-01T07:31:25.557Z,1009.9
2019-05-01T07:32:37.560Z,1009.9
2019-05-01T07:33:50.013Z,1009.8
2019-05-01T07:36:14.163Z,1009.9
2019-05-01T07:37:26.497Z,1009.9
2019-05-01T07:38:38.570Z,1009.9
2019-05-01T07:39:50.811Z,1009.9
2019-05-01T07:41:03.032Z,1009.9
2019-05-01T07:42:15.130Z,1009.9
2019-05-01T07:44:39.522Z,1009.9
2019-05-01T07:45:51.811Z,1009.9
2019-05-01T07:49:28.401Z,1009.9
2019-05-01T07:50:40.493Z,1009.9
2019-05-01T07:51:52.948Z,1010
2019-05-01T07:53:05.566Z,1009.9
2019-05-01T07:54:17.101Z,1009.9
2019-05-01T07:55:29.423Z,1009.9
2019-05-01T07:56:41.452Z,1009.9
2019-05-01T08:00:18.039Z,1010
2019-05-01T08:03:54.784Z,1009.9
2019-05-01T08:05:06.834Z,1009.9
2019-05-01T08:06:19.106Z,1010
2019-05-01T08:07:31.207Z,1010
2019-05-01T08:08:43.529Z,1010.1
2019-05-01T08:09:55.690Z,1010
2019-05-01T08:13:32.325Z,1010
2019-05-01T08:14:44.382Z,1010
2019-05-01T08:17:08.937Z,1010
2019-05-01T08:18:20.986Z,1010
2019-05-01T08:19:33.238Z,1010
2019-05-01T08:20:45.354Z,1010
2019-05-01T08:21:57.584Z,1010
2019-05-01T08:24:21.965Z,1010.1
2019-05-01T08:26:46.367Z,1010
2019-05-01T08:27:58.538Z,1010.1
2019-05-01T08:29:10.673Z,1010.1
2019-05-01T08:30:22.928Z,1010.1
2019-05-01T08:31:35.252Z,1010.1
2019-05-01T08:32:47.266Z,1010.1
2019-05-01T08:33:59.454Z,1010.1
2019-05-01T08:36:23.925Z,1010.1
2019-05-01T08:37:36.153Z,1010.1
2019-05-01T08:41:12.619Z,1010.1
2019-05-01T08:42:24.804Z,1010.1
2019-05-01T08:43:37.213Z,1010.1
2019-05-01T08:44:49.194Z,1010.1
2019-05-01T08:46:01.483Z,1010.2
2019-05-01T08:48:25.774Z,1010.1
2019-05-01T08:50:50.309Z,1010.1
2019-05-01T08:52:02.491Z,1010.1
2019-05-01T08:54:26.748Z,1010.1
2019-05-01T08:55:39.303Z,1010.2
2019-05-01T08:56:51.157Z,1010.1
2019-05-01T08:58:03.355Z,1010.1
2019-05-01T09:01:40.031Z,1010.1
2019-05-01T09:04:04.429Z,1010.1
2019-05-01T09:05:16.502Z,1010.1
2019-05-01T09:06:28.720Z,1010.1
2019-05-01T09:08:53.266Z,1010.1
2019-05-01T09:10:05.353Z,1010.1
2019-05-01T09:12:29.771Z,1010.1
2019-05-01T09:16:06.284Z,1010
2019-05-01T09:17:18.514Z,1010.1
2019-05-01T09:18:30.620Z,1010
2019-05-01T09:19:42.815Z,1010
2019-05-01T09:20:55.006Z,1010
2019-05-01T09:22:07.275Z,1010
2019-05-01T09:26:55.981Z,1010
2019-05-01T09:28:08.271Z,1010
2019-05-01T09:29:20.508Z,1010
2019-05-01T09:30:32.603Z,1010
2019-05-01T09:31:44.759Z,1010
2019-05-01T09:32:57.029Z,1009.9
2019-05-01T09:34:09.172Z,1010
2019-05-01T09:36:33.643Z,1010
2019-05-01T09:37:45.824Z,1009.9
2019-05-01T09:38:58.032Z,1009.9
2019-05-01T09:40:10.243Z,1009.9
2019-05-01T09:41:22.476Z,1010
2019-05-01T09:42:34.502Z,1009.9
2019-05-01T09:46:11.125Z,1010
2019-05-01T09:48:35.768Z,1010
2019-05-01T09:49:47.676Z,1010
2019-05-01T09:51:00.010Z,1009.9
2019-05-01T09:53:24.292Z,1010
2019-05-01T09:54:36.630Z,1010
2019-05-01T09:57:00.977Z,1010
2019-05-01T09:58:13.150Z,1010
2019-05-01T10:01:49.767Z,1010
2019-05-01T10:03:01.931Z,1009.9
2019-05-01T10:04:14.126Z,1010
2019-05-01T10:06:38.505Z,1010
2019-05-01T10:09:02.881Z,1009.9
2019-05-01T10:10:15.055Z,1009.8
2019-05-01T10:12:39.594Z,1009.8
2019-05-01T10:15:03.743Z,1009.8
2019-05-01T10:17:28.118Z,1009.7
2019-05-01T10:18:40.451Z,1009.8
2019-05-01T10:19:52.560Z,1009.7
2019-05-01T10:21:04.704Z,1009.7
2019-05-01T10:24:41.340Z,1009.7
2019-05-01T10:25:57.343Z,1009.7
2019-05-01T10:27:05.904Z,1009.6
2019-05-01T10:28:17.872Z,1009.6
2019-05-01T10:29:30.066Z,1009.6
2019-05-01T10:30:42.249Z,1009.6
2019-05-01T10:31:54.445Z,1009.6
2019-05-01T10:33:06.737Z,1009.6
2019-05-01T10:34:18.934Z,1009.6
2019-05-01T10:36:43.239Z,1009.6
2019-05-01T10:39:07.717Z,1009.6
2019-05-01T10:41:32.218Z,1009.5
2019-05-01T10:42:44.208Z,1009.5
2019-05-01T10:45:08.597Z,1009.5
2019-05-01T10:46:20.776Z,1009.5
2019-05-01T10:48:45.343Z,1009.5
2019-05-01T10:49:57.345Z,1009.5
2019-05-01T10:51:09.737Z,1009.5
2019-05-01T10:52:21.828Z,1009.4
2019-05-01T10:53:33.928Z,1009.5
2019-05-01T10:54:46.221Z,1009.4
2019-05-01T10:55:58.611Z,1009.4
2019-05-01T10:57:10.626Z,1009.4
2019-05-01T10:58:22.765Z,1009.4
2019-05-01T11:00:47.119Z,1009.4
2019-05-01T11:01:59.398Z,1009.3
2019-05-01T11:04:23.754Z,1009.3
2019-05-01T11:05:35.856Z,1009.3
2019-05-01T11:06:48.059Z,1009.3
2019-05-01T11:08:00.293Z,1009.3
2019-05-01T11:09:12.446Z,1009.3
2019-05-01T11:10:24.726Z,1009.3
2019-05-01T11:12:49.017Z,1009.3
2019-05-01T11:15:13.469Z,1009.3
2019-05-01T11:16:25.644Z,1009.2
2019-05-01T11:17:37.862Z,1009.2
2019-05-01T11:18:50.052Z,1009.2
2019-05-01T11:21:14.495Z,1009.2
2019-05-01T11:22:26.636Z,1009.1
2019-05-01T11:24:51.086Z,1009.2
2019-05-01T11:27:15.332Z,1009.1
2019-05-01T11:29:39.740Z,1009.1
2019-05-01T11:30:52.156Z,1009
2019-05-01T11:32:04.469Z,1009.1
2019-05-01T11:33:16.329Z,1009.1
2019-05-01T11:36:52.902Z,1009
2019-05-01T11:38:05.241Z,1009
2019-05-01T11:39:17.319Z,1009.1
2019-05-01T11:42:53.847Z,1009
2019-05-01T11:44:06.070Z,1009.1
2019-05-01T11:45:18.344Z,1009
2019-05-01T11:51:19.200Z,1009
2019-05-01T11:53:43.744Z,1009
2019-05-01T11:54:55.904Z,1009
2019-05-01T11:56:08.187Z,1009
2019-05-01T11:57:20.239Z,1009
2019-05-01T11:58:32.471Z,1008.9
2019-05-01T12:00:56.846Z,1008.9
2019-05-01T12:02:09.194Z,1008.9
2019-05-01T12:03:21.408Z,1008.9
2019-05-01T12:04:33.415Z,1008.9
2019-05-01T12:06:57.748Z,1008.8
2019-05-01T12:08:09.991Z,1008.8
2019-05-01T12:09:22.108Z,1008.8
2019-05-01T12:12:58.701Z,1008.8
2019-05-01T12:14:11.123Z,1008.8
2019-05-01T12:15:23.201Z,1008.8
2019-05-01T12:16:35.482Z,1008.8
2019-05-01T12:17:47.468Z,1008.8
2019-05-01T12:18:59.735Z,1008.7
2019-05-01T12:21:24.068Z,1008.7
2019-05-01T12:22:36.334Z,1008.8
2019-05-01T12:26:13.241Z,1008.7
2019-05-01T12:29:49.577Z,1008.7
2019-05-01T12:31:01.776Z,1008.6
2019-05-01T12:33:25.985Z,1008.6
2019-05-01T12:37:02.647Z,1008.6
2019-05-01T12:40:39.200Z,1008.6
2019-05-01T12:43:03.545Z,1008.5
2019-05-01T12:44:15.904Z,1008.6
2019-05-01T12:45:27.915Z,1008.5
2019-05-01T12:49:04.581Z,1008.5
2019-05-01T12:51:28.987Z,1008.5
2019-05-01T12:52:41.195Z,1008.5
2019-05-01T12:53:53.282Z,1008.5
2019-05-01T12:55:05.469Z,1008.5
2019-05-01T12:56:17.966Z,1008.5
2019-05-01T12:57:29.879Z,1008.5
2019-05-01T12:58:42.133Z,1008.5
2019-05-01T13:02:18.733Z,1008.4
2019-05-01T13:03:30.911Z,1008.4
2019-05-01T13:04:43.091Z,1008.4
2019-05-01T13:05:55.282Z,1008.3
2019-05-01T13:07:07.736Z,1008.3
2019-05-01T13:09:35.905Z,1008.3
2019-05-01T13:13:08.503Z,1008.3
2019-05-01T13:14:20.783Z,1008.2
2019-05-01T13:15:32.744Z,1008.2
2019-05-01T13:16:45.035Z,1008.2
2019-05-01T13:17:57.140Z,1008.2
2019-05-01T13:19:09.356Z,1008.1
2019-05-01T13:21:33.713Z,1008.1
2019-05-01T13:22:46.051Z,1008.1
2019-05-01T13:25:10.565Z,1008.2
2019-05-01T13:26:22.602Z,1008.1
2019-05-01T13:27:34.690Z,1008.1
2019-05-01T13:28:47.049Z,1008.1
2019-05-01T13:29:59.091Z,1008
2019-05-01T13:31:11.443Z,1008
2019-05-01T13:32:23.457Z,1008
2019-05-01T13:33:35.690Z,1008
2019-05-01T13:34:47.977Z,1007.9
2019-05-01T13:38:24.421Z,1007.9
2019-05-01T13:39:36.714Z,1007.9
2019-05-01T13:40:49.344Z,1007.8
2019-05-01T13:42:01.088Z,1007.8
2019-05-01T13:43:13.223Z,1007.8
2019-05-01T13:44:25.408Z,1007.8
2019-05-01T13:45:37.673Z,1007.8
2019-05-01T13:46:49.832Z,1007.7
2019-05-01T13:49:14.245Z,1007.7
2019-05-01T13:50:26.357Z,1007.7
2019-05-01T13:51:38.660Z,1007.7
2019-05-01T13:54:03.036Z,1007.7
2019-05-01T13:55:19.680Z,1007.7
2019-05-01T13:57:39.595Z,1007.7
2019-05-01T13:58:51.958Z,1007.7
2019-05-01T14:01:16.101Z,1007.7
2019-05-01T14:02:28.484Z,1007.7
2019-05-01T14:06:05.478Z,1007.7
2019-05-01T14:07:17.059Z,1007.6
2019-05-01T14:09:41.479Z,1007.5
2019-05-01T14:14:30.342Z,1007.5
2019-05-01T14:15:42.470Z,1007.4
2019-05-01T14:19:19.035Z,1007.4
2019-05-01T14:21:43.501Z,1007.4
2019-05-01T14:22:55.578Z,1007.3
2019-05-01T14:25:20.231Z,1007.3
2019-05-01T14:26:32.373Z,1007.4
2019-05-01T14:31:21.081Z,1007.3
2019-05-01T14:32:33.198Z,1007.3
2019-05-01T14:33:45.384Z,1007.3
2019-05-01T14:37:21.952Z,1007.2
2019-05-01T14:38:34.167Z,1007.3
2019-05-01T14:43:22.946Z,1007.2
2019-05-01T14:44:35.065Z,1007.2
2019-05-01T14:45:47.261Z,1007.2
2019-05-01T14:50:36.151Z,1007.2
2019-05-01T14:55:24.899Z,1007.1
2019-05-01T14:57:49.259Z,1007.1
2019-05-01T14:59:01.382Z,1007
2019-05-01T15:01:25.937Z,1007
2019-05-01T15:02:38.055Z,1006.9
2019-05-01T15:05:02.455Z,1007
2019-05-01T15:07:26.808Z,1007
2019-05-01T15:08:38.997Z,1006.9
2019-05-01T15:09:51.130Z,1006.9
2019-05-01T15:13:27.734Z,1006.9
2019-05-01T15:14:40.163Z,1006.9
2019-05-01T15:17:04.473Z,1006.8
2019-05-01T15:19:28.887Z,1006.8
2019-05-01T15:21:53.066Z,1006.8
2019-05-01T15:25:29.875Z,1006.7
2019-05-01T15:27:54.023Z,1006.8
2019-05-01T15:29:06.531Z,1006.8
2019-05-01T15:31:30.670Z,1006.7
2019-05-01T15:33:55.077Z,1006.7
2019-05-01T15:35:07.221Z,1006.7
2019-05-01T15:37:31.841Z,1006.7
2019-05-01T15:38:48.930Z,1006.7
2019-05-01T15:41:08.257Z,1006.6
2019-05-01T15:42:20.476Z,1006.6
2019-05-01T15:43:32.687Z,1006.6
2019-05-01T15:45:56.992Z,1006.6
2019-05-01T15:47:09.289Z,1006.6
2019-05-01T15:49:33.496Z,1006.6
2019-05-01T15:50:45.687Z,1006.6
2019-05-01T15:55:34.651Z,1006.6
2019-05-01T15:56:46.772Z,1006.6
2019-05-01T15:57:58.868Z,1006.6
2019-05-01T15:59:11.069Z,1006.5
2019-05-01T16:02:47.685Z,1006.4
2019-05-01T16:06:24.346Z,1006.5
2019-05-01T16:07:36.483Z,1006.5
2019-05-01T16:10:00.804Z,1006.4
2019-05-01T16:14:49.666Z,1006.4
2019-05-01T16:18:26.254Z,1006.4
2019-05-01T16:19:38.386Z,1006.4
2019-05-01T16:22:05.234Z,1006.3
2019-05-01T16:25:39.376Z,1006.3
2019-05-01T16:26:51.561Z,1006.3
2019-05-01T16:28:03.746Z,1006.3
2019-05-01T16:29:16.152Z,1006.2
2019-05-01T16:30:28.171Z,1006.3
2019-05-01T16:31:40.332Z,1006.3
2019-05-01T16:32:53.698Z,1006.3
2019-05-01T16:34:04.743Z,1006.2
2019-05-01T16:35:16.882Z,1006.3
2019-05-01T16:37:41.417Z,1006.2
2019-05-01T16:38:53.456Z,1006.2
2019-05-01T16:40:05.662Z,1006.3
2019-05-01T16:41:17.880Z,1006.2
2019-05-01T16:42:30.140Z,1006.3
2019-05-01T16:43:42.249Z,1006.3
2019-05-01T16:46:06.800Z,1006.2
2019-05-01T16:47:18.870Z,1006.2
2019-05-01T16:50:55.443Z,1006.2
2019-05-01T16:52:07.773Z,1006.1
2019-05-01T16:53:19.799Z,1006.2
2019-05-01T16:54:32.090Z,1006.1
2019-05-01T16:55:44.716Z,1006.1
2019-05-01T16:56:56.419Z,1006.1
2019-05-01T16:58:08.580Z,1006.1
2019-05-01T16:59:20.912Z,1006.1
2019-05-01T17:01:45.160Z,1006.1
2019-05-01T17:02:57.359Z,1006.1
2019-05-01T17:04:09.569Z,1006.1
2019-05-01T17:05:21.848Z,1006.1
2019-05-01T17:06:33.934Z,1006.1
2019-05-01T17:07:46.134Z,1006.1
2019-05-01T17:08:58.338Z,1006
2019-05-01T17:10:10.521Z,1006
2019-05-01T17:11:22.843Z,1006
2019-05-01T17:13:47.116Z,1006
2019-05-01T17:14:59.375Z,1005.9
2019-05-01T17:16:11.534Z,1006
2019-05-01T17:17:23.720Z,1006
2019-05-01T17:18:36.071Z,1005.9
2019-05-01T17:19:48.179Z,1006
2019-05-01T17:21:00.329Z,1005.9
2019-05-01T17:22:12.497Z,1005.9
2019-05-01T17:23:24.711Z,1005.9
2019-05-01T17:25:49.117Z,1005.9
2019-05-01T17:27:01.348Z,1005.9
2019-05-01T17:28:13.479Z,1005.9
2019-05-01T17:29:25.697Z,1005.9
2019-05-01T17:30:37.888Z,1005.9
2019-05-01T17:31:50.043Z,1005.9
2019-05-01T17:33:02.285Z,1005.9
2019-05-01T17:34:14.429Z,1005.9
2019-05-01T17:37:51.427Z,1005.9
2019-05-01T17:39:03.267Z,1005.9
2019-05-01T17:40:15.410Z,1005.9
2019-05-01T17:41:27.624Z,1005.9
2019-05-01T17:42:39.829Z,1005.9
2019-05-01T17:43:52.054Z,1005.9
2019-05-01T17:45:04.211Z,1005.9
2019-05-01T17:46:16.455Z,1005.8
2019-05-01T17:47:28.571Z,1005.9
2019-05-01T17:49:52.965Z,1005.9
2019-05-01T17:51:05.443Z,1005.9
2019-05-01T17:52:17.369Z,1005.9
2019-05-01T17:53:29.597Z,1005.9
2019-05-01T17:54:41.837Z,1005.8
2019-05-01T17:55:57.442Z,1005.9
2019-05-01T17:57:06.232Z,1005.9
2019-05-01T17:58:18.375Z,1005.9
2019-05-01T17:59:30.517Z,1005.9
2019-05-01T18:01:54.913Z,1005.8
2019-05-01T18:03:07.132Z,1005.8
2019-05-01T18:04:19.420Z,1005.8
2019-05-01T18:05:31.612Z,1005.8
2019-05-01T18:06:43.705Z,1005.9
2019-05-01T18:07:55.873Z,1005.8
2019-05-01T18:09:08.177Z,1005.9
2019-05-01T18:10:20.448Z,1005.8
2019-05-01T18:13:56.885Z,1005.9
2019-05-01T18:15:09.960Z,1005.9
2019-05-01T18:16:21.403Z,1005.9
2019-05-01T18:17:33.449Z,1005.9
2019-05-01T18:18:45.656Z,1005.9
2019-05-01T18:19:57.895Z,1005.9
2019-05-01T18:21:10.134Z,1005.8
2019-05-01T18:22:22.295Z,1005.8
2019-05-01T18:27:11.167Z,1005.8
2019-05-01T18:28:23.294Z,1005.8
2019-05-01T18:29:35.481Z,1005.9
2019-05-01T18:30:47.659Z,1005.8
2019-05-01T18:31:59.804Z,1005.8
2019-05-01T18:34:24.210Z,1005.8
2019-05-01T18:35:36.470Z,1005.7
2019-05-01T18:38:00.764Z,1005.7
2019-05-01T18:39:13.182Z,1005.7
2019-05-01T18:40:25.259Z,1005.8
2019-05-01T18:41:37.379Z,1005.7
2019-05-01T18:42:49.564Z,1005.7
2019-05-01T18:44:01.944Z,1005.7
2019-05-01T18:45:13.933Z,1005.7
2019-05-01T18:46:26.140Z,1005.7
2019-05-01T18:47:38.327Z,1005.7
2019-05-01T18:50:02.766Z,1005.7
2019-05-01T18:51:14.927Z,1005.7
2019-05-01T18:52:27.096Z,1005.7
2019-05-01T18:53:39.337Z,1005.7
2019-05-01T18:54:52.927Z,1005.7
2019-05-01T18:56:03.880Z,1005.7
2019-05-01T18:57:15.946Z,1005.7
2019-05-01T18:58:28.086Z,1005.7
2019-05-01T18:59:40.270Z,1005.8
2019-05-01T19:02:04.699Z,1005.8
2019-05-01T19:03:16.919Z,1005.7
2019-05-01T19:04:29.150Z,1005.7
2019-05-01T19:05:41.380Z,1005.7
2019-05-01T19:06:53.516Z,1005.7
2019-05-01T19:08:05.821Z,1005.7
2019-05-01T19:10:30.575Z,1005.8
2019-05-01T19:11:42.293Z,1005.7
2019-05-01T19:14:06.668Z,1005.7
2019-05-01T19:15:18.831Z,1005.7
2019-05-01T19:16:31.003Z,1005.7
2019-05-01T19:17:43.305Z,1005.7
2019-05-01T19:18:55.483Z,1005.7
2019-05-01T19:20:07.622Z,1005.7
2019-05-01T19:21:19.986Z,1005.7
2019-05-01T19:22:32.090Z,1005.7
2019-05-01T19:26:09.724Z,1005.7
2019-05-01T19:27:20.883Z,1005.7
2019-05-01T19:29:45.158Z,1005.8
2019-05-01T19:30:57.377Z,1005.7
2019-05-01T19:32:10.867Z,1005.7
2019-05-01T19:33:21.853Z,1005.7
2019-05-01T19:34:33.937Z,1005.7
2019-05-01T19:35:46.136Z,1005.7
2019-05-01T19:38:10.534Z,1005.7
2019-05-01T19:39:22.718Z,1005.7
2019-05-01T19:40:34.933Z,1005.7
2019-05-01T19:41:47.114Z,1005.7
2019-05-01T19:43:04.620Z,1005.7
2019-05-01T19:44:11.529Z,1005.7
2019-05-01T19:45:23.791Z,1005.7
2019-05-01T19:46:37.891Z,1005.7
2019-05-01T19:47:48.096Z,1005.7
2019-05-01T19:50:12.691Z,1005.7
2019-05-01T19:51:24.679Z,1005.7
2019-05-01T19:53:49.153Z,1005.6
2019-05-01T19:55:01.334Z,1005.6
2019-05-01T19:56:13.694Z,1005.7
2019-05-01T19:57:25.683Z,1005.7
2019-05-01T19:58:37.848Z,1005.7
2019-05-01T19:59:50.152Z,1005.7
2019-05-01T20:02:14.528Z,1005.6
2019-05-01T20:03:26.677Z,1005.6
2019-05-01T20:04:38.827Z,1005.6
2019-05-01T20:05:51.140Z,1005.6
2019-05-01T20:07:03.237Z,1005.6
2019-05-01T20:08:15.400Z,1005.6
2019-05-01T20:09:27.594Z,1005.6
2019-05-01T20:10:39.789Z,1005.6
2019-05-01T20:11:52.048Z,1005.6
2019-05-01T20:15:28.622Z,1005.6
2019-05-01T20:16:40.806Z,1005.6
2019-05-01T20:17:53.035Z,1005.6
2019-05-01T20:19:05.227Z,1005.6
2019-05-01T20:20:17.436Z,1005.5
2019-05-01T20:21:29.609Z,1005.6
2019-05-01T20:22:41.876Z,1005.5
2019-05-01T20:23:54.034Z,1005.5
2019-05-01T20:26:18.494Z,1005.5
2019-05-01T20:27:30.531Z,1005.5
2019-05-01T20:28:42.796Z,1005.5
2019-05-01T20:29:54.940Z,1005.5
2019-05-01T20:31:07.594Z,1005.5
2019-05-01T20:32:19.374Z,1005.5
2019-05-01T20:33:31.709Z,1005.5
2019-05-01T20:34:43.725Z,1005.5
2019-05-01T20:35:55.915Z,1005.5
2019-05-01T20:38:20.365Z,1005.5
2019-05-01T20:39:32.824Z,1005.5
2019-05-01T20:40:44.685Z,1005.4
2019-05-01T20:41:56.887Z,1005.5
2019-05-01T20:43:09.195Z,1005.5
2019-05-01T20:44:21.620Z,1005.4
2019-05-01T20:45:33.491Z,1005.4
2019-05-01T20:46:45.663Z,1005.4
2019-05-01T20:47:57.937Z,1005.5
2019-05-01T20:50:22.314Z,1005.4
2019-05-01T20:51:34.446Z,1005.4
2019-05-01T20:52:46.696Z,1005.4